Terminal Aerodrome Forecast
Issued by NWS Cleveland, OH

Home | Current Version | Previous Version | Text Only | Print | Product List | Glossary On
Versions: 1 2 3 4 5 6 7 8 9 10 11 12 13 14 15 16 17
000
FTUS41 KCLE 041400 AAB
TAFTOL
TAF AMD
KTOL 041446Z 0415/0512 23014G22KT P6SM VCSH SCT050 BKN100
     FM041530 24014G22KT 5SM -SHRA BR OVC050
      TEMPO 0418/0422 1 1/2SM -TSRA BR BKN025CB OVC035
     FM050200 27005KT 6SM BR SCT015 OVC025=

USA.gov is the U.S. government's official web portal to all federal, state and local government web resources and services.